KAL017 RKSI-KLAX
Flight info
| Callsign | KAL017 |
|---|---|
| Flight time | N/A |
| Altitude | 33000 |
| Route | EGOBA2C EGOBA Y697 LANAT Y51 SAMON Y142 GTC Y512 ADNAP OTR7 EMRON DCT 42N160E/N0491F350 44N170E 43N180E 40N170W 39N160W 38N150W/N0480F370 37N140W 35N130W DCT GALIP DCT DINTY C1176 RZS SADDE8 |
| Aircraft | B77W/H-SDE1E2E3FGHIJ2J3J4J5M1RWXY/LB1D1 |
Departure
| Time | N/A |
|---|---|
| Airport | Incheon International Airport (RKSI) |
Arrival
| Time | 2026-05-05 14:12 |
|---|---|
| Airport | Los Angeles International Airport (KLAX) |
| Time | Latitude | Longitude | Altitude | Speed | Heading |
|---|---|---|---|---|---|
| 2026-05-05 13:22 | 33.73938 | -123.93099 | 35084 ft | 493 kts | 98° |
| 2026-05-05 13:22 | 33.72447 | -123.85018 | 35075 ft | 496 kts | 98° |
| 2026-05-05 13:23 | 33.70944 | -123.76912 | 35072 ft | 499 kts | 98° |
| 2026-05-05 13:23 | 33.69429 | -123.68776 | 35075 ft | 500 kts | 98° |
| 2026-05-05 13:24 | 33.67903 | -123.60610 | 35075 ft | 502 kts | 98° |
| 2026-05-05 13:24 | 33.66367 | -123.52420 | 35063 ft | 504 kts | 99° |
| 2026-05-05 13:25 | 33.64817 | -123.44190 | 35068 ft | 506 kts | 99° |
| 2026-05-05 13:25 | 33.63256 | -123.35935 | 35066 ft | 508 kts | 99° |
| 2026-05-05 13:26 | 33.61686 | -123.27662 | 35064 ft | 508 kts | 99° |
| 2026-05-05 13:26 | 33.60111 | -123.19400 | 35062 ft | 508 kts | 99° |
| 2026-05-05 13:27 | 33.58531 | -123.11138 | 35068 ft | 508 kts | 99° |
| 2026-05-05 13:27 | 33.56949 | -123.02896 | 35068 ft | 507 kts | 99° |
| 2026-05-05 13:28 | 33.55360 | -122.94654 | 35063 ft | 507 kts | 99° |
| 2026-05-05 13:28 | 33.53768 | -122.86424 | 35080 ft | 506 kts | 100° |
| 2026-05-05 13:29 | 33.52172 | -122.78204 | 35060 ft | 507 kts | 100° |
| 2026-05-05 13:29 | 33.50570 | -122.69985 | 35059 ft | 507 kts | 100° |
| 2026-05-05 13:30 | 33.49222 | -122.61718 | 35086 ft | 503 kts | 89° |
| 2026-05-05 13:30 | 33.49378 | -122.57549 | 35063 ft | 499 kts | 78° |
| 2026-05-05 13:30 | 33.50114 | -122.53501 | 35070 ft | 496 kts | 69° |
| 2026-05-05 13:31 | 33.52859 | -122.45990 | 35063 ft | 493 kts | 61° |
| 2026-05-05 13:31 | 33.55804 | -122.38514 | 35066 ft | 496 kts | 61° |
| 2026-05-05 13:32 | 33.58722 | -122.30936 | 35070 ft | 499 kts | 62° |
| 2026-05-05 13:32 | 33.61108 | -122.24631 | 35065 ft | 499 kts | 62° |
| 2026-05-05 13:33 | 33.64425 | -122.15802 | 35056 ft | 499 kts | 62° |
| 2026-05-05 13:33 | 33.66808 | -122.09446 | 35055 ft | 498 kts | 62° |
| 2026-05-05 13:34 | 33.69647 | -122.01869 | 35064 ft | 497 kts | 62° |
| 2026-05-05 13:34 | 33.72474 | -121.94312 | 35057 ft | 496 kts | 62° |
| 2026-05-05 13:35 | 33.75286 | -121.86773 | 35048 ft | 493 kts | 63° |
| 2026-05-05 13:35 | 33.78081 | -121.79267 | 35061 ft | 490 kts | 63° |
| 2026-05-05 13:36 | 33.80858 | -121.71790 | 35051 ft | 489 kts | 63° |
| 2026-05-05 13:36 | 33.83602 | -121.64386 | 35048 ft | 488 kts | 63° |
| 2026-05-05 13:37 | 33.86358 | -121.56932 | 35048 ft | 487 kts | 63° |
| 2026-05-05 13:37 | 33.89109 | -121.49477 | 35064 ft | 488 kts | 63° |
| 2026-05-05 13:38 | 33.91870 | -121.41977 | 35053 ft | 491 kts | 63° |
| 2026-05-05 13:38 | 33.94635 | -121.34448 | 35051 ft | 493 kts | 63° |
| 2026-05-05 13:39 | 33.97405 | -121.26886 | 35048 ft | 494 kts | 63° |
| 2026-05-05 13:39 | 34.00174 | -121.19310 | 35043 ft | 495 kts | 64° |
| 2026-05-05 13:40 | 34.02946 | -121.11707 | 35040 ft | 495 kts | 64° |
| 2026-05-05 13:40 | 34.05712 | -121.04102 | 35039 ft | 495 kts | 64° |
| 2026-05-05 13:41 | 34.08469 | -120.96508 | 35039 ft | 494 kts | 64° |
| 2026-05-05 13:41 | 34.11221 | -120.88907 | 35043 ft | 495 kts | 64° |
| 2026-05-05 13:42 | 34.13971 | -120.81295 | 35035 ft | 495 kts | 64° |
| 2026-05-05 13:42 | 34.16719 | -120.73670 | 35037 ft | 495 kts | 64° |
| 2026-05-05 13:43 | 34.19460 | -120.66045 | 35034 ft | 495 kts | 64° |
| 2026-05-05 13:43 | 34.22199 | -120.58410 | 35036 ft | 495 kts | 64° |
| 2026-05-05 13:44 | 34.24932 | -120.50771 | 35032 ft | 495 kts | 64° |
| 2026-05-05 13:44 | 34.27663 | -120.43122 | 35032 ft | 495 kts | 64° |
| 2026-05-05 13:45 | 34.30387 | -120.35474 | 35041 ft | 496 kts | 65° |
| 2026-05-05 13:45 | 34.33113 | -120.27800 | 35029 ft | 496 kts | 65° |
| 2026-05-05 13:46 | 34.35834 | -120.20121 | 35025 ft | 497 kts | 65° |
| 2026-05-05 13:46 | 34.38549 | -120.12439 | 35030 ft | 497 kts | 65° |
| 2026-05-05 13:47 | 34.41268 | -120.04731 | 35018 ft | 498 kts | 65° |
| 2026-05-05 13:47 | 34.42630 | -120.00861 | 34684 ft | 504 kts | 65° |
| 2026-05-05 13:47 | 34.44020 | -119.96908 | 33881 ft | 511 kts | 65° |
| 2026-05-05 13:48 | 34.45403 | -119.92963 | 33214 ft | 505 kts | 65° |
| 2026-05-05 13:48 | 34.46780 | -119.89034 | 32687 ft | 496 kts | 65° |
| 2026-05-05 13:48 | 34.48114 | -119.85227 | 32151 ft | 488 kts | 65° |
| 2026-05-05 13:48 | 34.49201 | -119.81370 | 31374 ft | 484 kts | 77° |
| 2026-05-05 13:49 | 34.49362 | -119.77287 | 30508 ft | 490 kts | 95° |
| 2026-05-05 13:49 | 34.48625 | -119.73324 | 29954 ft | 487 kts | 107° |
| 2026-05-05 13:49 | 34.47163 | -119.69655 | 29327 ft | 482 kts | 120° |
| 2026-05-05 13:49 | 34.45305 | -119.66288 | 28630 ft | 478 kts | 122° |
| 2026-05-05 13:50 | 34.43435 | -119.62984 | 27948 ft | 474 kts | 123° |
| 2026-05-05 13:50 | 34.41582 | -119.59704 | 27314 ft | 470 kts | 123° |
| 2026-05-05 13:50 | 34.39758 | -119.56437 | 26723 ft | 465 kts | 122° |
| 2026-05-05 13:50 | 34.37967 | -119.53194 | 26137 ft | 461 kts | 123° |
| 2026-05-05 13:51 | 34.36177 | -119.49926 | 25541 ft | 457 kts | 123° |
| 2026-05-05 13:51 | 34.34436 | -119.46737 | 24986 ft | 453 kts | 123° |
| 2026-05-05 13:51 | 34.32706 | -119.43564 | 24440 ft | 449 kts | 123° |
| 2026-05-05 13:51 | 34.30990 | -119.40419 | 23912 ft | 446 kts | 123° |
| 2026-05-05 13:52 | 34.29291 | -119.37309 | 23355 ft | 442 kts | 123° |
| 2026-05-05 13:52 | 34.27602 | -119.34223 | 22751 ft | 438 kts | 123° |
| 2026-05-05 13:52 | 34.25927 | -119.31164 | 22159 ft | 434 kts | 123° |
| 2026-05-05 13:52 | 34.24264 | -119.28131 | 21603 ft | 431 kts | 123° |
| 2026-05-05 13:53 | 34.22612 | -119.25121 | 21018 ft | 428 kts | 123° |
| 2026-05-05 13:53 | 34.20972 | -119.22135 | 20446 ft | 426 kts | 124° |
| 2026-05-05 13:53 | 34.19342 | -119.19170 | 19921 ft | 422 kts | 124° |
| 2026-05-05 13:53 | 34.17721 | -119.16224 | 19409 ft | 419 kts | 124° |
| 2026-05-05 13:54 | 34.16117 | -119.13310 | 18900 ft | 416 kts | 123° |
| 2026-05-05 13:54 | 34.14515 | -119.10403 | 18395 ft | 413 kts | 123° |
| 2026-05-05 13:54 | 34.12929 | -119.07526 | 17837 ft | 411 kts | 124° |
| 2026-05-05 13:54 | 34.11396 | -119.04634 | 17283 ft | 408 kts | 118° |
| 2026-05-05 13:55 | 34.10341 | -119.01477 | 16635 ft | 406 kts | 107° |
| 2026-05-05 13:55 | 34.09560 | -118.98220 | 16069 ft | 404 kts | 106° |
| 2026-05-05 13:55 | 34.08751 | -118.94859 | 15887 ft | 432 kts | 107° |
| 2026-05-05 13:55 | 34.07851 | -118.91281 | 16005 ft | 457 kts | 107° |
| 2026-05-05 13:56 | 34.06925 | -118.87737 | 16426 ft | 428 kts | 108° |
| 2026-05-05 13:56 | 34.06030 | -118.84380 | 16193 ft | 415 kts | 108° |
| 2026-05-05 13:56 | 34.05146 | -118.81095 | 15831 ft | 408 kts | 108° |
| 2026-05-05 13:56 | 34.04279 | -118.77870 | 15443 ft | 401 kts | 108° |
| 2026-05-05 13:57 | 34.03566 | -118.74650 | 14943 ft | 397 kts | 99° |
| 2026-05-05 13:57 | 34.03267 | -118.71351 | 14533 ft | 392 kts | 94° |
| 2026-05-05 13:57 | 34.03062 | -118.68136 | 14480 ft | 378 kts | 95° |
| 2026-05-05 13:57 | 34.02830 | -118.65047 | 14436 ft | 363 kts | 95° |
| 2026-05-05 13:58 | 34.02569 | -118.62032 | 13980 ft | 362 kts | 96° |
| 2026-05-05 13:58 | 34.02285 | -118.58971 | 12995 ft | 372 kts | 96° |
| 2026-05-05 13:58 | 34.01991 | -118.55873 | 11937 ft | 364 kts | 96° |
| 2026-05-05 13:58 | 34.01711 | -118.52929 | 10984 ft | 354 kts | 96° |
| 2026-05-05 13:59 | 34.01184 | -118.47348 | 10179 ft | 307 kts | 96° |
| 2026-05-05 13:59 | 34.00968 | -118.44864 | 9987 ft | 291 kts | 91° |
| 2026-05-05 14:00 | 34.01375 | -118.39934 | 8923 ft | 303 kts | 79° |
| 2026-05-05 14:00 | 34.01623 | -118.38272 | 8413 ft | 305 kts | 78° |
| 2026-05-05 14:00 | 34.02157 | -118.34891 | 7413 ft | 308 kts | 79° |
| 2026-05-05 14:00 | 34.02536 | -118.32356 | 6676 ft | 306 kts | 79° |
| 2026-05-05 14:01 | 34.02888 | -118.29838 | 5916 ft | 303 kts | 80° |
| 2026-05-05 14:01 | 34.03218 | -118.27363 | 5138 ft | 295 kts | 81° |
| 2026-05-05 14:01 | 34.03514 | -118.24945 | 4462 ft | 285 kts | 82° |
| 2026-05-05 14:01 | 34.03781 | -118.22666 | 4195 ft | 263 kts | 81° |
| 2026-05-05 14:02 | 34.04055 | -118.20565 | 3895 ft | 246 kts | 80° |
| 2026-05-05 14:02 | 34.04324 | -118.18557 | 3376 ft | 240 kts | 81° |
| 2026-05-05 14:02 | 34.04568 | -118.16599 | 2858 ft | 233 kts | 81° |
| 2026-05-05 14:02 | 34.04789 | -118.14714 | 2634 ft | 226 kts | 82° |
| 2026-05-05 14:03 | 34.05009 | -118.12833 | 2610 ft | 227 kts | 82° |
| 2026-05-05 14:03 | 34.05228 | -118.10936 | 2577 ft | 230 kts | 81° |
| 2026-05-05 14:03 | 34.05454 | -118.09017 | 2588 ft | 232 kts | 82° |
| 2026-05-05 14:03 | 34.05681 | -118.07063 | 2595 ft | 232 kts | 81° |
| 2026-05-05 14:04 | 34.05867 | -118.05132 | 2579 ft | 232 kts | 92° |
| 2026-05-05 14:04 | 34.05427 | -118.03304 | 2570 ft | 228 kts | 126° |
| 2026-05-05 14:04 | 34.04259 | -118.02088 | 2577 ft | 225 kts | 159° |
| 2026-05-05 14:04 | 34.02709 | -118.01836 | 2585 ft | 230 kts | 191° |
| 2026-05-05 14:05 | 34.01270 | -118.02627 | 2584 ft | 229 kts | 223° |
| 2026-05-05 14:05 | 34.00215 | -118.04022 | 2579 ft | 223 kts | 231° |
| 2026-05-05 14:05 | 33.99238 | -118.05457 | 2572 ft | 219 kts | 234° |
| 2026-05-05 14:05 | 33.98645 | -118.07065 | 2563 ft | 206 kts | 261° |
| 2026-05-05 14:06 | 33.98448 | -118.08739 | 2573 ft | 198 kts | 262° |
| 2026-05-05 14:06 | 33.98260 | -118.10364 | 2570 ft | 195 kts | 262° |
| 2026-05-05 14:06 | 33.98143 | -118.11443 | 2570 ft | 196 kts | 263° |
| 2026-05-05 14:06 | 33.97918 | -118.13602 | 2638 ft | 187 kts | 263° |
| 2026-05-05 14:07 | 33.97770 | -118.15050 | 2585 ft | 170 kts | 263° |
| 2026-05-05 14:07 | 33.97627 | -118.16459 | 2603 ft | 171 kts | 263° |
| 2026-05-05 14:07 | 33.97528 | -118.17425 | 2605 ft | 173 kts | 263° |
| 2026-05-05 14:07 | 33.97333 | -118.19351 | 2608 ft | 176 kts | 263° |
| 2026-05-05 14:08 | 33.97183 | -118.20819 | 2596 ft | 175 kts | 263° |
| 2026-05-05 14:08 | 33.97042 | -118.22209 | 2587 ft | 160 kts | 263° |
| 2026-05-05 14:08 | 33.96952 | -118.23088 | 2600 ft | 156 kts | 263° |
| 2026-05-05 14:08 | 33.96820 | -118.24383 | 2582 ft | 155 kts | 263° |
| 2026-05-05 14:09 | 33.96689 | -118.25666 | 2559 ft | 156 kts | 263° |
| 2026-05-05 14:09 | 33.96558 | -118.26957 | 2339 ft | 157 kts | 263° |
| 2026-05-05 14:09 | 33.96426 | -118.28253 | 2122 ft | 154 kts | 263° |
| 2026-05-05 14:09 | 33.96297 | -118.29519 | 1914 ft | 151 kts | 263° |
| 2026-05-05 14:10 | 33.96168 | -118.30782 | 1715 ft | 149 kts | 263° |
| 2026-05-05 14:10 | 33.96041 | -118.32023 | 1494 ft | 150 kts | 263° |
| 2026-05-05 14:10 | 33.95914 | -118.33276 | 1308 ft | 151 kts | 262° |
| 2026-05-05 14:10 | 33.95787 | -118.34526 | 1101 ft | 150 kts | 263° |
| 2026-05-05 14:11 | 33.95659 | -118.35773 | 890 ft | 150 kts | 263° |
| 2026-05-05 14:11 | 33.95534 | -118.36990 | 653 ft | 143 kts | 263° |
| 2026-05-05 14:11 | 33.95423 | -118.38140 | 455 ft | 135 kts | 263° |
| 2026-05-05 14:11 | 33.95309 | -118.39264 | 308 ft | 135 kts | 263° |
| 2026-05-05 14:12 | 33.95195 | -118.40353 | 173 ft | 124 kts | 263° |
| 2026-05-05 14:12 | 33.95097 | -118.41298 | 132 ft | 100 kts | 263° |
| 2026-05-05 14:12 | 33.95036 | -118.41729 | 127 ft | 34 kts | 248° |
| 2026-05-05 14:12 | 33.94967 | -118.41879 | 126 ft | 7 kts | 234° |
| 2026-05-05 14:13 | 33.94940 | -118.41924 | 126 ft | 7 kts | 234° |
| 2026-05-05 14:13 | 33.94934 | -118.41933 | 125 ft | 0 kts | 233° |
| 2026-05-05 14:13 | 33.94932 | -118.41936 | 126 ft | 1 kts | 233° |
| 2026-05-05 14:13 | 33.94928 | -118.41943 | 128 ft | 4 kts | 233° |
| 2026-05-05 14:14 | 33.94865 | -118.42044 | 127 ft | 18 kts | 232° |
| 2026-05-05 14:14 | 33.94790 | -118.42162 | 126 ft | 18 kts | 233° |
| 2026-05-05 14:14 | 33.94707 | -118.42221 | 126 ft | 11 kts | 143° |
| 2026-05-05 14:14 | 33.94696 | -118.42127 | 129 ft | 12 kts | 87° |
| 2026-05-05 14:15 | 33.94707 | -118.42011 | 130 ft | 14 kts | 83° |
| 2026-05-05 14:15 | 33.94719 | -118.41892 | 129 ft | 14 kts | 83° |
| 2026-05-05 14:15 | 33.94733 | -118.41755 | 126 ft | 19 kts | 83° |
| 2026-05-05 14:15 | 33.94749 | -118.41595 | 127 ft | 19 kts | 82° |
| 2026-05-05 14:16 | 33.94767 | -118.41436 | 130 ft | 18 kts | 79° |
| 2026-05-05 14:16 | 33.94793 | -118.41299 | 129 ft | 16 kts | 82° |
| 2026-05-05 14:16 | 33.94806 | -118.41175 | 127 ft | 3 kts | 83° |
| 2026-05-05 14:16 | 33.94816 | -118.41112 | 128 ft | 15 kts | 72° |
| 2026-05-05 14:17 | 33.94821 | -118.41037 | 128 ft | 13 kts | 86° |
| 2026-05-05 14:17 | 33.94827 | -118.40928 | 127 ft | 13 kts | 102° |
| 2026-05-05 14:17 | 33.94759 | -118.40915 | 129 ft | 13 kts | 240° |
| 2026-05-05 14:17 | 33.94740 | -118.41025 | 130 ft | 13 kts | 262° |
| 2026-05-05 14:18 | 33.94726 | -118.41138 | 127 ft | 13 kts | 258° |
| 2026-05-05 14:18 | 33.94695 | -118.41243 | 126 ft | 13 kts | 236° |
| 2026-05-05 14:18 | 33.94609 | -118.41271 | 128 ft | 13 kts | 176° |
| 2026-05-05 14:18 | 33.94538 | -118.41235 | 128 ft | 10 kts | 118° |
| 2026-05-05 14:19 | 33.94529 | -118.41185 | 126 ft | 6 kts | 100° |
| 2026-05-05 14:19 | 33.94526 | -118.41162 | 129 ft | 0 kts | 98° |
| 2026-05-05 14:19 | 33.94525 | -118.41155 | 129 ft | 0 kts | 98° |